sensor_id;sensor_type;location;lat;lon;timestamp;pressure;altitude;pressure_sealevel;temperature;humidity
12594;BME280;6362;50.208;9.182;2023-04-05T00:01:14;100605.88;;;1.56;57.32
12594;BME280;6362;50.208;9.182;2023-04-05T00:03:40;100606.66;;;1.55;57.34
12594;BME280;6362;50.208;9.182;2023-04-05T00:06:07;100604.97;;;1.55;57.45
12594;BME280;6362;50.208;9.182;2023-04-05T00:08:32;100599.78;;;1.54;57.36
12594;BME280;6362;50.208;9.182;2023-04-05T00:10:58;100601.41;;;1.52;57.28
12594;BME280;6362;50.208;9.182;2023-04-05T00:13:23;100587.78;;;1.53;57.50
12594;BME280;6362;50.208;9.182;2023-04-05T00:15:49;100593.59;;;1.49;57.28
12594;BME280;6362;50.208;9.182;2023-04-05T00:18:15;100586.66;;;1.46;57.36
12594;BME280;6362;50.208;9.182;2023-04-05T00:20:51;100591.56;;;1.40;57.76
12594;BME280;6362;50.208;9.182;2023-04-05T00:23:17;100588.00;;;1.37;57.21
12594;BME280;6362;50.208;9.182;2023-04-05T00:25:43;100581.84;;;1.33;57.61
12594;BME280;6362;50.208;9.182;2023-04-05T00:28:10;100583.56;;;1.32;57.37
12594;BME280;6362;50.208;9.182;2023-04-05T00:30:35;100582.38;;;1.24;57.56
12594;BME280;6362;50.208;9.182;2023-04-05T00:33:01;100576.78;;;1.12;58.21
12594;BME280;6362;50.208;9.182;2023-04-05T00:35:29;100580.88;;;1.09;58.36
12594;BME280;6362;50.208;9.182;2023-04-05T00:37:55;100584.94;;;1.03;58.31
12594;BME280;6362;50.208;9.182;2023-04-05T00:40:22;100581.50;;;1.03;57.69
12594;BME280;6362;50.208;9.182;2023-04-05T00:42:47;100577.88;;;0.98;58.12
12594;BME280;6362;50.208;9.182;2023-04-05T00:45:12;100582.13;;;0.97;58.24
12594;BME280;6362;50.208;9.182;2023-04-05T00:47:40;100585.31;;;0.92;59.02
12594;BME280;6362;50.208;9.182;2023-04-05T00:50:07;100581.56;;;0.84;59.51
12594;BME280;6362;50.208;9.182;2023-04-05T00:52:34;100589.94;;;0.79;58.87
12594;BME280;6362;50.208;9.182;2023-04-05T00:55:03;100583.06;;;0.78;58.50
12594;BME280;6362;50.208;9.182;2023-04-05T00:57:30;100580.34;;;0.75;58.95
12594;BME280;6362;50.208;9.182;2023-04-05T00:59:59;100576.88;;;0.73;58.49
12594;BME280;6362;50.208;9.182;2023-04-05T01:02:31;100576.72;;;0.70;57.98
12594;BME280;6362;50.208;9.182;2023-04-05T01:05:02;100575.81;;;0.68;58.53
12594;BME280;6362;50.208;9.182;2023-04-05T01:07:47;100570.28;;;0.59;58.44
12594;BME280;6362;50.208;9.182;2023-04-05T01:10:16;100561.72;;;0.59;58.77
12594;BME280;6362;50.208;9.182;2023-04-05T01:12:43;100570.16;;;0.56;59.21
12594;BME280;6362;50.208;9.182;2023-04-05T01:15:10;100564.09;;;0.54;59.07
12594;BME280;6362;50.208;9.182;2023-04-05T01:17:36;100558.66;;;0.46;59.75
12594;BME280;6362;50.208;9.182;2023-04-05T01:20:09;100555.06;;;0.43;59.89
12594;BME280;6362;50.208;9.182;2023-04-05T01:25:40;100551.69;;;0.44;59.66
12594;BME280;6362;50.208;9.182;2023-04-05T01:28:43;100553.59;;;0.48;59.57
12594;BME280;6362;50.208;9.182;2023-04-05T01:31:31;100540.81;;;0.48;59.28
12594;BME280;6362;50.208;9.182;2023-04-05T01:34:22;100542.47;;;0.47;58.71
12594;BME280;6362;50.208;9.182;2023-04-05T01:36:55;100546.78;;;0.48;58.88
12594;BME280;6362;50.208;9.182;2023-04-05T01:39:23;100547.91;;;0.55;59.31
12594;BME280;6362;50.208;9.182;2023-04-05T01:41:49;100550.16;;;0.47;58.69
12594;BME280;6362;50.208;9.182;2023-04-05T01:44:15;100550.97;;;0.46;58.94
12594;BME280;6362;50.208;9.182;2023-04-05T01:46:40;100546.84;;;0.50;58.75
12594;BME280;6362;50.208;9.182;2023-04-05T01:49:06;100550.41;;;0.53;58.51
12594;BME280;6362;50.208;9.182;2023-04-05T01:51:31;100550.38;;;0.52;59.03
12594;BME280;6362;50.208;9.182;2023-04-05T01:53:57;100550.41;;;0.53;58.54
12594;BME280;6362;50.208;9.182;2023-04-05T01:56:22;100546.16;;;0.54;58.59
12594;BME280;6362;50.208;9.182;2023-04-05T01:58:47;100546.84;;;0.50;58.21
12594;BME280;6362;50.208;9.182;2023-04-05T02:01:13;100545.84;;;0.46;58.55
12594;BME280;6362;50.208;9.182;2023-04-05T02:03:38;100544.78;;;0.41;59.10
12594;BME280;6362;50.208;9.182;2023-04-05T02:06:04;100545.59;;;0.40;58.95
12594;BME280;6362;50.208;9.182;2023-04-05T02:08:30;100539.88;;;0.46;58.77
12594;BME280;6362;50.208;9.182;2023-04-05T02:10:55;100541.47;;;0.44;58.32
12594;BME280;6362;50.208;9.182;2023-04-05T02:13:21;100532.19;;;0.46;58.34
12594;BME280;6362;50.208;9.182;2023-04-05T02:15:48;100536.50;;;0.47;58.33
12594;BME280;6362;50.208;9.182;2023-04-05T02:18:14;100540.13;;;0.52;57.91
12594;BME280;6362;50.208;9.182;2023-04-05T02:20:40;100540.81;;;0.48;58.22
12594;BME280;6362;50.208;9.182;2023-04-05T02:23:05;100530.44;;;0.45;58.39
12594;BME280;6362;50.208;9.182;2023-04-05T02:25:31;100536.97;;;0.38;58.77
12594;BME280;6362;50.208;9.182;2023-04-05T02:27:57;100529.44;;;0.41;58.94
12594;BME280;6362;50.208;9.182;2023-04-05T02:30:22;100515.56;;;0.36;58.97
12594;BME280;6362;50.208;9.182;2023-04-05T02:32:48;100520.84;;;0.39;58.32
12594;BME280;6362;50.208;9.182;2023-04-05T02:35:13;100522.47;;;0.39;59.12
12594;BME280;6362;50.208;9.182;2023-04-05T02:37:39;100521.50;;;0.35;59.48
12594;BME280;6362;50.208;9.182;2023-04-05T02:40:06;100523.03;;;0.32;59.47
12594;BME280;6362;50.208;9.182;2023-04-05T02:42:34;100522.97;;;0.30;59.61
12594;BME280;6362;50.208;9.182;2023-04-05T02:45:00;100522.72;;;0.24;59.89
12594;BME280;6362;50.208;9.182;2023-04-05T02:47:26;100531.66;;;0.14;60.77
12594;BME280;6362;50.208;9.182;2023-04-05T02:49:51;100529.00;;;0.11;61.86
12594;BME280;6362;50.208;9.182;2023-04-05T02:52:17;100530.59;;;0.09;61.39
12594;BME280;6362;50.208;9.182;2023-04-05T02:54:42;100531.34;;;0.07;61.87
12594;BME280;6362;50.208;9.182;2023-04-05T02:57:09;100533.69;;;0.02;62.01
12594;BME280;6362;50.208;9.182;2023-04-05T02:59:36;100525.09;;;0.00;62.37
12594;BME280;6362;50.208;9.182;2023-04-05T03:02:03;100533.22;;;-0.09;62.74
12594;BME280;6362;50.208;9.182;2023-04-05T03:04:29;100528.81;;;-0.11;62.93
12594;BME280;6362;50.208;9.182;2023-04-05T03:06:54;100528.75;;;-0.13;63.00
12594;BME280;6362;50.208;9.182;2023-04-05T03:09:21;100521.16;;;-0.11;62.73
12594;BME280;6362;50.208;9.182;2023-04-05T03:11:47;100514.50;;;-0.08;61.95
12594;BME280;6362;50.208;9.182;2023-04-05T03:14:13;100519.63;;;-0.08;61.76
12594;BME280;6362;50.208;9.182;2023-04-05T03:16:38;100517.94;;;-0.07;61.42
12594;BME280;6362;50.208;9.182;2023-04-05T03:19:04;100512.81;;;-0.07;61.95
12594;BME280;6362;50.208;9.182;2023-04-05T03:21:31;100512.00;;;-0.06;61.14
12594;BME280;6362;50.208;9.182;2023-04-05T03:23:56;100510.31;;;-0.06;62.18
12594;BME280;6362;50.208;9.182;2023-04-05T03:26:22;100503.34;;;-0.10;61.91
12594;BME280;6362;50.208;9.182;2023-04-05T03:28:48;100510.28;;;-0.07;62.81
12594;BME280;6362;50.208;9.182;2023-04-05T03:31:14;100498.75;;;-0.17;62.73
12594;BME280;6362;50.208;9.182;2023-04-05T03:33:39;100498.47;;;-0.23;63.00
12594;BME280;6362;50.208;9.182;2023-04-05T03:36:05;100497.75;;;-0.20;63.64
12594;BME280;6362;50.208;9.182;2023-04-05T03:38:30;100497.28;;;-0.31;63.95
12594;BME280;6362;50.208;9.182;2023-04-05T03:41:00;100497.00;;;-0.37;63.95
12594;BME280;6362;50.208;9.182;2023-04-05T03:43:26;100503.31;;;-0.29;66.24
12594;BME280;6362;50.208;9.182;2023-04-05T03:45:52;100499.41;;;-0.40;66.05
12594;BME280;6362;50.208;9.182;2023-04-05T03:48:17;100498.63;;;-0.57;65.98
12594;BME280;6362;50.208;9.182;2023-04-05T03:50:45;100500.03;;;-0.64;66.96
12594;BME280;6362;50.208;9.182;2023-04-05T03:53:10;100502.03;;;-0.76;66.88
12594;BME280;6362;50.208;9.182;2023-04-05T03:55:36;100502.41;;;-0.86;67.72
12594;BME280;6362;50.208;9.182;2023-04-05T03:58:01;100492.72;;;-0.93;67.56
12594;BME280;6362;50.208;9.182;2023-04-05T04:00:27;100503.84;;;-0.91;68.67
12594;BME280;6362;50.208;9.182;2023-04-05T04:02:52;100499.28;;;-0.98;68.82
12594;BME280;6362;50.208;9.182;2023-04-05T04:05:18;100496.91;;;-1.12;68.96
12594;BME280;6362;50.208;9.182;2023-04-05T04:07:45;100492.25;;;-1.20;69.18
12594;BME280;6362;50.208;9.182;2023-04-05T04:10:13;100495.31;;;-1.27;70.10
12594;BME280;6362;50.208;9.182;2023-04-05T04:12:39;100496.97;;;-1.28;70.05
12594;BME280;6362;50.208;9.182;2023-04-05T04:15:05;100495.91;;;-1.33;69.26
12594;BME280;6362;50.208;9.182;2023-04-05T04:17:33;100501.22;;;-1.28;69.23
12594;BME280;6362;50.208;9.182;2023-04-05T04:19:59;100504.31;;;-1.34;69.32
12594;BME280;6362;50.208;9.182;2023-04-05T04:22:25;100506.97;;;-1.33;69.59
12594;BME280;6362;50.208;9.182;2023-04-05T04:24:59;100501.22;;;-1.28;70.17
12594;BME280;6362;50.208;9.182;2023-04-05T04:27:29;100504.31;;;-1.34;69.78
12594;BME280;6362;50.208;9.182;2023-04-05T04:29:55;100496.78;;;-1.33;70.22
12594;BME280;6362;50.208;9.182;2023-04-05T04:32:27;100503.47;;;-1.35;70.32
12594;BME280;6362;50.208;9.182;2023-04-05T04:35:15;100484.72;;;-1.35;69.78
12594;BME280;6362;50.208;9.182;2023-04-05T04:37:56;100502.59;;;-1.35;69.67
12594;BME280;6362;50.208;9.182;2023-04-05T04:42:56;100496.03;;;-1.30;69.44
12594;BME280;6362;50.208;9.182;2023-04-05T04:45:24;100486.47;;;-1.34;69.58
12594;BME280;6362;50.208;9.182;2023-04-05T04:47:50;100491.16;;;-1.25;70.00
12594;BME280;6362;50.208;9.182;2023-04-05T04:50:18;100494.53;;;-1.26;69.56
12594;BME280;6362;50.208;9.182;2023-04-05T04:52:45;100488.53;;;-1.27;69.53
12594;BME280;6362;50.208;9.182;2023-04-05T04:55:11;100489.13;;;-1.33;69.24
12594;BME280;6362;50.208;9.182;2023-04-05T04:57:40;100490.13;;;-1.29;69.63
12594;BME280;6362;50.208;9.182;2023-04-05T05:00:07;100491.44;;;-1.37;69.59
12594;BME280;6362;50.208;9.182;2023-04-05T05:02:36;100497.53;;;-1.34;69.13
12594;BME280;6362;50.208;9.182;2023-04-05T05:05:02;100496.97;;;-1.28;69.01
12594;BME280;6362;50.208;9.182;2023-04-05T05:07:28;100498.59;;;-1.12;69.52
12594;BME280;6362;50.208;9.182;2023-04-05T05:09:54;100494.94;;;-1.17;69.37
12594;BME280;6362;50.208;9.182;2023-04-05T05:12:20;100492.19;;;-1.22;69.34
12594;BME280;6362;50.208;9.182;2023-04-05T05:14:46;100494.00;;;-1.19;69.20
12594;BME280;6362;50.208;9.182;2023-04-05T05:17:11;100505.25;;;-1.16;68.80
12594;BME280;6362;50.208;9.182;2023-04-05T05:19:37;100499.28;;;-1.16;69.43
12594;BME280;6362;50.208;9.182;2023-04-05T05:22:02;100512.75;;;-1.19;69.96
12594;BME280;6362;50.208;9.182;2023-04-05T05:24:28;100502.47;;;-1.20;70.08
12594;BME280;6362;50.208;9.182;2023-04-05T05:26:53;100506.75;;;-1.19;70.14
12594;BME280;6362;50.208;9.182;2023-04-05T05:29:19;100511.88;;;-1.19;70.14
12594;BME280;6362;50.208;9.182;2023-04-05T05:31:44;100506.75;;;-1.19;69.88
12594;BME280;6362;50.208;9.182;2023-04-05T05:34:10;100509.38;;;-1.18;70.08
12594;BME280;6362;50.208;9.182;2023-04-05T05:36:35;100505.81;;;-1.21;70.35
12594;BME280;6362;50.208;9.182;2023-04-05T05:39:02;100508.56;;;-1.17;70.42
12594;BME280;6362;50.208;9.182;2023-04-05T05:41:30;100514.88;;;-1.10;70.34
12594;BME280;6362;50.208;9.182;2023-04-05T05:43:55;100510.06;;;-1.04;70.50
12594;BME280;6362;50.208;9.182;2023-04-05T05:46:21;100508.00;;;-1.11;70.63
12594;BME280;6362;50.208;9.182;2023-04-05T05:48:46;100510.41;;;-0.96;70.96
12594;BME280;6362;50.208;9.182;2023-04-05T05:51:11;100509.91;;;-1.07;71.14
12594;BME280;6362;50.208;9.182;2023-04-05T05:53:38;100504.97;;;-1.04;70.80
12594;BME280;6362;50.208;9.182;2023-04-05T05:56:04;100511.16;;;-0.99;71.08
12594;BME280;6362;50.208;9.182;2023-04-05T05:58:30;100515.47;;;-0.98;70.74
12594;BME280;6362;50.208;9.182;2023-04-05T06:00:55;100512.97;;;-0.78;70.06
12594;BME280;6362;50.208;9.182;2023-04-05T06:03:22;100519.97;;;-0.74;69.68
12594;BME280;6362;50.208;9.182;2023-04-05T06:05:55;100514.34;;;-0.49;68.74
12594;BME280;6362;50.208;9.182;2023-04-05T06:08:22;100512.63;;;-0.31;68.12
12594;BME280;6362;50.208;9.182;2023-04-05T06:10:49;100514.19;;;-0.15;67.45
12594;BME280;6362;50.208;9.182;2023-04-05T06:13:15;100518.22;;;-0.01;67.22
12594;BME280;6362;50.208;9.182;2023-04-05T06:15:43;100521.19;;;0.08;67.02
12594;BME280;6362;50.208;9.182;2023-04-05T06:18:09;100518.88;;;0.14;66.90
12594;BME280;6362;50.208;9.182;2023-04-05T06:20:34;100514.84;;;0.19;66.55
12594;BME280;6362;50.208;9.182;2023-04-05T06:23:07;100513.56;;;0.29;66.76
12594;BME280;6362;50.208;9.182;2023-04-05T06:25:33;100519.16;;;0.40;66.65
12594;BME280;6362;50.208;9.182;2023-04-05T06:27:59;100512.91;;;0.54;66.88
12594;BME280;6362;50.208;9.182;2023-04-05T06:30:24;100510.06;;;0.67;66.27
12594;BME280;6362;50.208;9.182;2023-04-05T06:32:50;100515.16;;;0.88;65.00
12594;BME280;6362;50.208;9.182;2023-04-05T06:35:22;100519.53;;;1.12;65.63
12594;BME280;6362;50.208;9.182;2023-04-05T06:37:48;100507.69;;;1.36;63.99
12594;BME280;6362;50.208;9.182;2023-04-05T06:40:14;100502.78;;;1.42;61.46
12594;BME280;6362;50.208;9.182;2023-04-05T06:42:40;100505.25;;;1.39;61.92
12594;BME280;6362;50.208;9.182;2023-04-05T06:45:06;100508.50;;;1.35;60.46
12594;BME280;6362;50.208;9.182;2023-04-05T06:47:35;100510.59;;;1.45;60.02
12594;BME280;6362;50.208;9.182;2023-04-05T06:50:01;100510.28;;;1.82;61.04
12594;BME280;6362;50.208;9.182;2023-04-05T06:52:27;100513.22;;;1.93;60.29
12594;BME280;6362;50.208;9.182;2023-04-05T06:54:53;100518.19;;;2.11;59.67
12594;BME280;6362;50.208;9.182;2023-04-05T06:57:18;100506.00;;;2.29;57.96
12594;BME280;6362;50.208;9.182;2023-04-05T06:59:44;100508.09;;;2.41;57.74
12594;BME280;6362;50.208;9.182;2023-04-05T07:02:10;100510.09;;;2.50;55.73
12594;BME280;6362;50.208;9.182;2023-04-05T07:04:35;100514.97;;;2.42;55.85
12594;BME280;6362;50.208;9.182;2023-04-05T07:07:02;100513.78;;;2.56;55.02
12594;BME280;6362;50.208;9.182;2023-04-05T07:09:29;100504.22;;;2.78;54.98
12594;BME280;6362;50.208;9.182;2023-04-05T07:11:57;100499.63;;;2.95;53.60
12594;BME280;6362;50.208;9.182;2023-04-05T07:14:22;100498.88;;;2.99;53.04
12594;BME280;6362;50.208;9.182;2023-04-05T07:16:48;100498.31;;;3.07;53.21
12594;BME280;6362;50.208;9.182;2023-04-05T07:19:13;100494.09;;;3.09;52.48
12594;BME280;6362;50.208;9.182;2023-04-05T07:21:39;100491.81;;;3.18;52.16
12594;BME280;6362;50.208;9.182;2023-04-05T07:24:05;100499.06;;;3.32;52.20
12594;BME280;6362;50.208;9.182;2023-04-05T07:26:31;100505.00;;;3.58;51.80
12594;BME280;6362;50.208;9.182;2023-04-05T07:29:00;100495.81;;;3.66;51.24
12594;BME280;6362;50.208;9.182;2023-04-05T07:31:26;100484.00;;;3.73;51.21
12594;BME280;6362;50.208;9.182;2023-04-05T07:33:51;100488.69;;;3.87;50.80
12594;BME280;6362;50.208;9.182;2023-04-05T07:36:17;100489.41;;;3.82;50.05
12594;BME280;6362;50.208;9.182;2023-04-05T07:38:42;100492.31;;;3.94;49.90
12594;BME280;6362;50.208;9.182;2023-04-05T07:41:09;100490.44;;;4.18;49.99
12594;BME280;6362;50.208;9.182;2023-04-05T07:43:34;100489.03;;;4.30;50.07
12594;BME280;6362;50.208;9.182;2023-04-05T07:46:01;100489.34;;;4.42;48.98
12594;BME280;6362;50.208;9.182;2023-04-05T07:48:27;100481.78;;;4.48;48.15
12594;BME280;6362;50.208;9.182;2023-04-05T07:50:52;100478.84;;;4.67;47.83
12594;BME280;6362;50.208;9.182;2023-04-05T07:53:18;100485.00;;;4.74;46.83
12594;BME280;6362;50.208;9.182;2023-04-05T07:55:44;100478.69;;;4.96;47.61
12594;BME280;6362;50.208;9.182;2023-04-05T07:58:10;100485.69;;;5.01;46.67
12594;BME280;6362;50.208;9.182;2023-04-05T08:00:36;100479.13;;;5.16;46.79
12594;BME280;6362;50.208;9.182;2023-04-05T08:03:02;100485.69;;;5.01;47.37
12594;BME280;6362;50.208;9.182;2023-04-05T08:05:28;100479.34;;;5.25;46.12
12594;BME280;6362;50.208;9.182;2023-04-05T08:07:54;100476.13;;;5.35;46.58
12594;BME280;6362;50.208;9.182;2023-04-05T08:10:22;100475.91;;;5.65;43.38
12594;BME280;6362;50.208;9.182;2023-04-05T08:12:48;100475.91;;;5.65;44.48
12594;BME280;6362;50.208;9.182;2023-04-05T08:15:13;100471.72;;;5.70;43.35
12594;BME280;6362;50.208;9.182;2023-04-05T08:17:39;100475.34;;;5.78;41.76
12594;BME280;6362;50.208;9.182;2023-04-05T08:20:05;100470.34;;;5.88;42.98
12594;BME280;6362;50.208;9.182;2023-04-05T08:22:31;100471.03;;;5.77;42.76
12594;BME280;6362;50.208;9.182;2023-04-05T08:24:56;100475.44;;;5.83;41.86
12594;BME280;6362;50.208;9.182;2023-04-05T08:27:21;100476.81;;;6.06;43.42
12594;BME280;6362;50.208;9.182;2023-04-05T08:29:47;100466.13;;;6.33;43.51
12594;BME280;6362;50.208;9.182;2023-04-05T08:32:13;100466.16;;;6.35;42.72
12594;BME280;6362;50.208;9.182;2023-04-05T08:34:38;100462.81;;;6.42;41.17
12594;BME280;6362;50.208;9.182;2023-04-05T08:37:03;100466.53;;;6.56;41.75
12594;BME280;6362;50.208;9.182;2023-04-05T08:39:29;100463.31;;;6.71;41.47
12594;BME280;6362;50.208;9.182;2023-04-05T08:42:10;100464.41;;;6.85;40.12
12594;BME280;6362;50.208;9.182;2023-04-05T08:44:40;100453.41;;;6.97;41.05
12594;BME280;6362;50.208;9.182;2023-04-05T08:47:07;100454.91;;;6.83;39.91
12594;BME280;6362;50.208;9.182;2023-04-05T08:49:32;100448.81;;;6.81;39.29
12594;BME280;6362;50.208;9.182;2023-04-05T08:51:59;100454.34;;;7.04;39.07
12594;BME280;6362;50.208;9.182;2023-04-05T08:54:25;100451.28;;;7.29;37.32
12594;BME280;6362;50.208;9.182;2023-04-05T08:56:51;100454.03;;;7.41;36.53
12594;BME280;6362;50.208;9.182;2023-04-05T08:59:18;100446.19;;;7.34;37.32
12594;BME280;6362;50.208;9.182;2023-04-05T09:01:45;100450.00;;;7.62;37.43
12594;BME280;6362;50.208;9.182;2023-04-05T09:04:15;100445.16;;;7.91;35.45
12594;BME280;6362;50.208;9.182;2023-04-05T09:06:43;100441.72;;;7.89;36.46
12594;BME280;6362;50.208;9.182;2023-04-05T09:09:10;100438.06;;;7.75;36.07
12594;BME280;6362;50.208;9.182;2023-04-05T09:11:36;100443.31;;;7.81;37.34
12594;BME280;6362;50.208;9.182;2023-04-05T09:14:03;100434.94;;;8.05;37.20
12594;BME280;6362;50.208;9.182;2023-04-05T09:16:31;100437.81;;;8.31;36.44
12594;BME280;6362;50.208;9.182;2023-04-05T09:18:56;100433.72;;;8.50;35.75
12594;BME280;6362;50.208;9.182;2023-04-05T09:21:21;100435.50;;;8.57;34.24
12594;BME280;6362;50.208;9.182;2023-04-05T09:23:52;100428.69;;;8.69;36.70
12594;BME280;6362;50.208;9.182;2023-04-05T09:26:24;100431.41;;;8.88;32.76
12594;BME280;6362;50.208;9.182;2023-04-05T09:28:50;100421.16;;;9.03;35.74
12594;BME280;6362;50.208;9.182;2023-04-05T09:31:33;100429.91;;;9.17;34.37
12594;BME280;6362;50.208;9.182;2023-04-05T09:34:02;100441.06;;;9.06;34.24
12594;BME280;6362;50.208;9.182;2023-04-05T09:36:28;100435.06;;;9.11;33.63
12594;BME280;6362;50.208;9.182;2023-04-05T09:39:07;100431.78;;;9.49;35.41
12594;BME280;6362;50.208;9.182;2023-04-05T09:41:33;100431.03;;;9.67;33.32
12594;BME280;6362;50.208;9.182;2023-04-05T09:43:59;100422.38;;;9.69;31.78
12594;BME280;6362;50.208;9.182;2023-04-05T09:46:32;100431.13;;;9.96;32.93
12594;BME280;6362;50.208;9.182;2023-04-05T09:48:59;100427.69;;;10.09;34.07
12594;BME280;6362;50.208;9.182;2023-04-05T09:51:34;100432.84;;;9.95;33.38
12594;BME280;6362;50.208;9.182;2023-04-05T09:56:28;100420.00;;;10.50;33.56
12594;BME280;6362;50.208;9.182;2023-04-05T09:58:59;100419.13;;;10.61;32.19
12594;BME280;6362;50.208;9.182;2023-04-05T10:01:34;100417.38;;;10.75;31.62
12594;BME280;6362;50.208;9.182;2023-04-05T10:04:00;100417.41;;;10.67;32.63
12594;BME280;6362;50.208;9.182;2023-04-05T10:06:40;100407.84;;;10.69;32.73
12594;BME280;6362;50.208;9.182;2023-04-05T10:09:07;100413.94;;;10.50;32.02
12594;BME280;6362;50.208;9.182;2023-04-05T10:11:33;100408.69;;;10.76;33.13
12594;BME280;6362;50.208;9.182;2023-04-05T10:14:03;100407.81;;;11.03;32.74
12594;BME280;6362;50.208;9.182;2023-04-05T10:16:32;100407.81;;;11.12;31.49
12594;BME280;6362;50.208;9.182;2023-04-05T10:18:58;100405.97;;;11.42;31.75
12594;BME280;6362;50.208;9.182;2023-04-05T10:21:29;100405.03;;;11.67;30.24
12594;BME280;6362;50.208;9.182;2023-04-05T10:24:10;100399.69;;;11.95;28.85
12594;BME280;6362;50.208;9.182;2023-04-05T10:26:54;100388.41;;;11.91;28.61
12594;BME280;6362;50.208;9.182;2023-04-05T10:29:34;100389.34;;;11.73;29.28
12594;BME280;6362;50.208;9.182;2023-04-05T10:32:17;100386.75;;;11.70;29.46
12594;BME280;6362;50.208;9.182;2023-04-05T10:34:50;100388.47;;;11.71;29.18
12594;BME280;6362;50.208;9.182;2023-04-05T10:37:30;100386.66;;;11.92;29.22
12594;BME280;6362;50.208;9.182;2023-04-05T10:40:02;100383.16;;;11.99;28.61
12594;BME280;6362;50.208;9.182;2023-04-05T10:42:39;100383.16;;;11.99;28.52
12594;BME280;6362;50.208;9.182;2023-04-05T10:45:06;100383.84;;;12.25;29.23
12594;BME280;6362;50.208;9.182;2023-04-05T10:47:42;100385.94;;;12.89;29.75
12594;BME280;6362;50.208;9.182;2023-04-05T10:50:11;100376.84;;;13.29;28.95
12594;BME280;6362;50.208;9.182;2023-04-05T10:52:42;100379.66;;;13.07;27.60
12594;BME280;6362;50.208;9.182;2023-04-05T10:55:10;100372.44;;;13.31;30.41
12594;BME280;6362;50.208;9.182;2023-04-05T10:57:36;100378.50;;;13.36;28.35
12594;BME280;6362;50.208;9.182;2023-04-05T11:00:03;100361.63;;;13.61;27.73
12594;BME280;6362;50.208;9.182;2023-04-05T11:02:29;100361.72;;;13.54;27.73
12594;BME280;6362;50.208;9.182;2023-04-05T11:04:55;100362.34;;;13.72;28.01
12594;BME280;6362;50.208;9.182;2023-04-05T11:07:21;100357.72;;;14.50;27.71
12594;BME280;6362;50.208;9.182;2023-04-05T11:12:19;100354.34;;;14.93;25.68
12594;BME280;6362;50.208;9.182;2023-04-05T11:18:10;100344.25;;;14.73;24.15
12594;BME280;6362;50.208;9.182;2023-04-05T11:20:48;100342.94;;;14.47;25.32
12594;BME280;6362;50.208;9.182;2023-04-05T11:23:17;100343.56;;;14.60;25.09
12594;BME280;6362;50.208;9.182;2023-04-05T11:28:43;100337.84;;;14.89;26.14
12594;BME280;6362;50.208;9.182;2023-04-05T11:31:13;100343.31;;;14.77;25.32
12594;BME280;6362;50.208;9.182;2023-04-05T11:36:11;100332.88;;;14.21;25.15
12594;BME280;6362;50.208;9.182;2023-04-05T11:38:42;100325.28;;;14.59;27.54
12594;BME280;6362;50.208;9.182;2023-04-05T11:41:15;100322.50;;;14.68;25.50
12594;BME280;6362;50.208;9.182;2023-04-05T11:43:46;100327.06;;;14.57;27.44
12594;BME280;6362;50.208;9.182;2023-04-05T11:46:12;100324.78;;;14.86;25.62
12594;BME280;6362;50.208;9.182;2023-04-05T11:48:39;100307.59;;;15.18;26.92
12594;BME280;6362;50.208;9.182;2023-04-05T11:51:07;100316.09;;;14.84;23.87
12594;BME280;6362;50.208;9.182;2023-04-05T11:53:37;100315.47;;;14.19;24.85
12594;BME280;6362;50.208;9.182;2023-04-05T11:56:10;100308.31;;;13.73;25.34
12594;BME280;6362;50.208;9.182;2023-04-05T11:58:37;100310.59;;;13.34;25.73
12594;BME280;6362;50.208;9.182;2023-04-05T12:01:05;100319.22;;;12.61;26.50
12594;BME280;6362;50.208;9.182;2023-04-05T12:03:32;100313.25;;;12.43;26.90
12594;BME280;6362;50.208;9.182;2023-04-05T12:05:59;100314.97;;;12.48;27.28
12594;BME280;6362;50.208;9.182;2023-04-05T12:08:55;100313.66;;;12.93;28.15
12594;BME280;6362;50.208;9.182;2023-04-05T12:11:25;100304.31;;;13.47;25.47
12594;BME280;6362;50.208;9.182;2023-04-05T12:13:53;100295.56;;;14.09;26.41
12594;BME280;6362;50.208;9.182;2023-04-05T12:16:20;100294.53;;;14.71;24.43
12594;BME280;6362;50.208;9.182;2023-04-05T12:18:57;100292.25;;;14.99;24.68
12594;BME280;6362;50.208;9.182;2023-04-05T12:21:23;100281.94;;;14.90;24.48
12594;BME280;6362;50.208;9.182;2023-04-05T12:23:51;100284.22;;;15.07;24.03
12594;BME280;6362;50.208;9.182;2023-04-05T12:26:17;100289.38;;;15.10;23.49
12594;BME280;6362;50.208;9.182;2023-04-05T12:28:55;100288.56;;;15.08;25.10
12594;BME280;6362;50.208;9.182;2023-04-05T12:31:39;100278.22;;;15.44;24.28
12594;BME280;6362;50.208;9.182;2023-04-05T12:34:05;100284.44;;;15.78;24.11
12594;BME280;6362;50.208;9.182;2023-04-05T12:36:31;100284.06;;;15.95;24.71
12594;BME280;6362;50.208;9.182;2023-04-05T12:38:57;100274.81;;;16.15;23.16
12594;BME280;6362;50.208;9.182;2023-04-05T12:41:29;100272.63;;;16.66;22.21
12594;BME280;6362;50.208;9.182;2023-04-05T12:43:55;100265.22;;;16.48;22.67
12594;BME280;6362;50.208;9.182;2023-04-05T12:46:44;100266.34;;;16.73;23.26
12594;BME280;6362;50.208;9.182;2023-04-05T12:49:11;100267.63;;;16.89;23.41
12594;BME280;6362;50.208;9.182;2023-04-05T12:51:40;100255.31;;;17.21;22.61
12594;BME280;6362;50.208;9.182;2023-04-05T12:54:07;100247.28;;;17.26;23.63
12594;BME280;6362;50.208;9.182;2023-04-05T12:56:37;100248.28;;;17.51;21.79
12594;BME280;6362;50.208;9.182;2023-04-05T12:59:04;100240.09;;;17.32;22.27
12594;BME280;6362;50.208;9.182;2023-04-05T13:01:31;100241.41;;;17.18;21.11
12594;BME280;6362;50.208;9.182;2023-04-05T13:03:58;100240.28;;;17.54;21.38
12594;BME280;6362;50.208;9.182;2023-04-05T13:06:25;100237.50;;;17.88;20.97
12594;BME280;6362;50.208;9.182;2023-04-05T13:08:51;100236.06;;;17.21;21.03
12594;BME280;6362;50.208;9.182;2023-04-05T13:11:16;100231.38;;;17.58;20.11
12594;BME280;6362;50.208;9.182;2023-04-05T13:13:42;100222.78;;;17.81;20.06
12594;BME280;6362;50.208;9.182;2023-04-05T13:16:07;100225.72;;;17.71;21.62
12594;BME280;6362;50.208;9.182;2023-04-05T13:18:33;100222.59;;;18.14;20.88
12594;BME280;6362;50.208;9.182;2023-04-05T13:20:58;100220.72;;;18.17;21.11
12594;BME280;6362;50.208;9.182;2023-04-05T13:23:24;100225.03;;;18.45;19.47
12594;BME280;6362;50.208;9.182;2023-04-05T13:25:49;100220.19;;;18.33;20.43
12594;BME280;6362;50.208;9.182;2023-04-05T13:28:14;100213.47;;;18.24;20.53